Time;durP1;ratioP1;P1;durP2;ratioP2;P2;SDS_P1;SDS_P2;PMS_P1;PMS_P2;Temp;Humidity;BMP_temperature;BMP_pressure;BME280_temperature;BME280_humidity;BME280_pressure;Samples;Min_cycle;Max_cycle;Signal;HPM_P1;HPM_P2
2020/12/29 00:01:54;;;;;;;16.10;10.63;;;5.40;95.80;;;;;;5059273;28;20454;-88
2020/12/29 00:04:25;;;;;;;17.85;11.80;;;5.50;95.80;;;;;;5072237;28;20096;-89
2020/12/29 00:06:54;;;;;;;13.45;9.75;;;5.40;95.70;;;;;;5073318;28;20052;-89
2020/12/29 00:09:22;;;;;;;14.23;9.63;;;5.50;95.80;;;;;;5055231;28;20029;-90
2020/12/29 00:11:48;;;;;;;14.77;9.80;;;5.50;95.80;;;;;;5056096;28;20023;-87
2020/12/29 00:14:15;;;;;;;13.57;9.02;;;5.50;95.80;;;;;;5069795;28;20469;-90
2020/12/29 00:16:41;;;;;;;15.13;10.57;;;5.50;95.90;;;;;;5075629;28;20027;-90
2020/12/29 00:19:09;;;;;;;13.88;10.15;;;5.50;95.80;;;;;;5062957;28;20029;-90
2020/12/29 00:21:35;;;;;;;16.02;11.18;;;5.50;96.00;;;;;;5074582;28;20008;-90
2020/12/29 00:24:00;;;;;;;14.25;9.80;;;5.50;95.60;;;;;;5058894;28;20530;-90
2020/12/29 00:26:26;;;;;;;14.32;10.82;;;5.50;95.70;;;;;;5046261;28;20472;-90
2020/12/29 00:28:52;;;;;;;12.25;9.25;;;5.50;95.70;;;;;;5089386;28;20084;-86
2020/12/29 00:31:19;;;;;;;14.35;9.10;;;5.50;95.80;;;;;;5080640;28;20036;-89
2020/12/29 00:33:46;;;;;;;12.60;8.70;;;5.50;95.80;;;;;;5083918;28;20022;-87
2020/12/29 00:36:12;;;;;;;11.38;7.45;;;5.60;95.90;;;;;;5086775;28;20019;-87
2020/12/29 00:38:37;;;;;;;10.63;7.60;;;5.60;96.00;;;;;;5110909;28;20025;-87
2020/12/29 00:41:10;;;;;;;13.00;8.10;;;5.70;96.00;;;;;;5074136;28;20016;-87
2020/12/29 00:43:37;;;;;;;12.07;8.35;;;5.70;96.00;;;;;;5079250;28;20020;-90
2020/12/29 00:46:17;;;;;;;10.82;7.38;;;5.70;96.00;;;;;;5062524;28;20383;-90
2020/12/29 00:48:43;;;;;;;13.20;8.83;;;5.70;96.00;;;;;;5062553;28;20016;-90
2020/12/29 00:51:11;;;;;;;11.18;8.70;;;5.70;95.80;;;;;;5054872;28;20020;-89
2020/12/29 00:53:37;;;;;;;11.80;8.93;;;5.70;95.90;;;;;;5056952;28;20492;-89
2020/12/29 00:56:05;;;;;;;15.20;8.77;;;5.70;95.80;;;;;;5066876;28;20124;-90
2020/12/29 00:58:31;;;;;;;12.98;9.05;;;5.70;95.80;;;;;;5054376;28;20473;-89
2020/12/29 01:00:57;;;;;;;11.88;8.30;;;5.70;95.80;;;;;;5066724;28;20028;-90
2020/12/29 01:03:24;;;;;;;10.63;7.43;;;5.70;95.80;;;;;;5082936;28;20032;-88
2020/12/29 01:05:51;;;;;;;9.93;7.05;;;5.70;95.90;;;;;;5057952;28;20024;-90
2020/12/29 01:08:17;;;;;;;9.30;6.78;;;5.80;96.00;;;;;;5082555;28;20025;-89
2020/12/29 01:10:43;;;;;;;9.70;6.95;;;5.80;96.00;;;;;;5057432;28;20098;-90
2020/12/29 01:13:10;;;;;;;10.00;6.68;;;5.80;96.00;;;;;;5074626;28;20104;-88
2020/12/29 01:15:36;;;;;;;10.80;7.72;;;5.80;96.00;;;;;;5060036;28;20039;-90
2020/12/29 01:18:02;;;;;;;11.73;7.00;;;5.90;96.00;;;;;;5072362;28;20103;-91
2020/12/29 01:20:28;;;;;;;11.05;7.25;;;5.90;96.00;;;;;;5073082;28;20100;-90
2020/12/29 01:22:54;;;;;;;11.23;7.03;;;5.90;95.90;;;;;;5057079;28;20460;-88
2020/12/29 01:25:23;;;;;;;10.27;7.03;;;5.90;95.80;;;;;;5074826;28;20028;-89
2020/12/29 01:27:49;;;;;;;9.27;6.43;;;5.80;95.90;;;;;;5054571;28;20115;-90
2020/12/29 01:30:16;;;;;;;8.60;6.20;;;5.80;95.90;;;;;;5063449;28;20050;-88
2020/12/29 01:32:42;;;;;;;9.27;5.97;;;5.90;96.00;;;;;;5076266;28;20032;-90
2020/12/29 01:35:11;;;;;;;8.30;5.85;;;5.90;96.00;;;;;;5066305;28;20097;-88
2020/12/29 01:37:41;;;;;;;8.68;5.75;;;5.90;96.00;;;;;;5079020;28;20468;-88
2020/12/29 01:40:07;;;;;;;9.10;6.22;;;5.90;96.00;;;;;;5061745;28;20560;-90
2020/12/29 01:42:32;;;;;;;8.18;5.88;;;5.90;96.00;;;;;;5061981;28;20032;-89
2020/12/29 01:44:58;;;;;;;9.70;6.00;;;5.90;96.00;;;;;;5081361;28;20036;-86
2020/12/29 01:47:25;;;;;;;10.07;6.57;;;5.90;96.00;;;;;;5065216;28;20024;-90
2020/12/29 01:49:52;;;;;;;10.15;6.60;;;5.90;96.00;;;;;;5062006;28;20111;-88
2020/12/29 01:52:17;;;;;;;12.48;8.80;;;5.90;96.20;;;;;;5072495;28;20414;-90
2020/12/29 01:54:44;;;;;;;13.73;9.45;;;5.80;95.70;;;;;;5058757;28;20064;-90
2020/12/29 01:57:11;;;;;;;14.73;9.10;;;5.70;95.30;;;;;;5060881;28;20032;-90
2020/12/29 01:59:37;;;;;;;11.98;8.60;;;5.60;95.30;;;;;;5069160;28;20029;-89
2020/12/29 02:02:03;;;;;;;11.30;8.52;;;5.50;95.40;;;;;;5071606;28;20035;-89
2020/12/29 02:04:28;;;;;;;11.40;8.25;;;5.50;95.40;;;;;;5065360;28;20036;-89
2020/12/29 02:06:55;;;;;;;10.98;7.43;;;5.40;95.40;;;;;;5065199;28;20103;-89
2020/12/29 02:09:20;;;;;;;12.02;8.02;;;5.40;95.70;;;;;;5056848;28;20024;-90
2020/12/29 02:11:46;;;;;;;10.75;7.50;;;5.40;95.70;;;;;;5057917;28;20020;-91
2020/12/29 02:14:11;;;;;;;10.95;7.65;;;5.40;95.70;;;;;;5057943;28;20496;-90
2020/12/29 02:16:38;;;;;;;11.43;6.97;;;5.40;95.80;;;;;;5059843;28;20043;-89
2020/12/29 02:19:08;;;;;;;10.05;7.53;;;5.50;95.90;;;;;;5059600;28;20052;-90
2020/12/29 02:21:34;;;;;;;11.15;7.20;;;5.50;96.00;;;;;;5045615;28;20389;-89
2020/12/29 02:24:01;;;;;;;9.43;6.70;;;5.50;96.00;;;;;;5057479;28;20028;-84
2020/12/29 02:26:29;;;;;;;11.38;7.82;;;5.50;96.00;;;;;;5061109;28;20021;-90
2020/12/29 02:28:58;;;;;;;12.45;8.45;;;5.60;96.00;;;;;;5065498;28;20028;-90
2020/12/29 02:31:24;;;;;;;13.25;9.73;;;5.50;95.90;;;;;;5089357;28;20056;-90
2020/12/29 02:33:50;;;;;;;13.75;9.57;;;5.50;95.70;;;;;;5068198;28;20074;-90
2020/12/29 02:36:16;;;;;;;13.52;9.07;;;5.50;95.60;;;;;;5060511;28;20036;-90
2020/12/29 02:38:41;;;;;;;11.30;9.20;;;5.40;95.50;;;;;;5049276;28;20388;-89
2020/12/29 02:41:07;;;;;;;15.38;10.93;;;5.30;95.60;;;;;;5059469;28;20115;-88
2020/12/29 02:43:33;;;;;;;12.40;9.45;;;5.30;95.50;;;;;;5059539;28;20062;-90
2020/12/29 02:45:59;;;;;;;14.57;9.95;;;5.30;95.70;;;;;;5040658;28;20105;-89
2020/12/29 02:48:24;;;;;;;16.48;11.07;;;5.30;95.70;;;;;;5056541;28;20052;-89
2020/12/29 02:50:50;;;;;;;17.10;11.55;;;5.20;95.60;;;;;;5064226;28;20100;-89
2020/12/29 02:53:16;;;;;;;16.02;11.93;;;5.20;95.70;;;;;;5055553;28;20393;-88
2020/12/29 02:55:42;;;;;;;16.77;11.40;;;5.20;95.70;;;;;;5069729;28;20028;-88
2020/12/29 02:58:08;;;;;;;13.35;10.45;;;5.20;95.70;;;;;;5053727;28;20077;-89
2020/12/29 03:00:35;;;;;;;13.73;10.05;;;5.20;95.80;;;;;;5065123;28;20430;-88
2020/12/29 03:03:00;;;;;;;15.57;10.45;;;5.20;95.90;;;;;;5075230;28;20081;-90
2020/12/29 03:05:26;;;;;;;17.48;13.88;;;5.20;95.90;;;;;;5034060;28;20024;-89
2020/12/29 03:07:51;;;;;;;16.55;11.75;;;5.20;95.80;;;;;;5056877;28;20039;-90
2020/12/29 03:10:17;;;;;;;20.10;12.02;;;5.20;95.90;;;;;;5048253;28;20032;-89
2020/12/29 03:12:42;;;;;;;16.38;11.98;;;5.20;95.90;;;;;;5060130;28;20594;-88
2020/12/29 03:15:08;;;;;;;18.08;12.73;;;5.20;95.90;;;;;;5059987;28;20181;-88
2020/12/29 03:17:35;;;;;;;19.65;14.45;;;5.20;95.80;;;;;;5043724;28;20024;-89
2020/12/29 03:20:05;;;;;;;16.15;12.55;;;5.20;95.80;;;;;;5076250;28;20028;-90
2020/12/29 03:22:31;;;;;;;18.35;13.55;;;5.10;95.80;;;;;;5067373;28;20022;-89
2020/12/29 03:24:56;;;;;;;17.65;13.77;;;5.10;95.80;;;;;;5073679;28;20027;-89
2020/12/29 03:27:22;;;;;;;13.60;10.55;;;5.10;95.80;;;;;;5056787;28;20099;-89
2020/12/29 03:29:48;;;;;;;16.67;12.52;;;5.00;95.80;;;;;;5053781;28;20052;-88
2020/12/29 03:32:13;;;;;;;15.82;11.23;;;5.00;95.80;;;;;;5080460;28;20028;-89
2020/12/29 03:34:39;;;;;;;18.30;13.02;;;5.00;95.80;;;;;;5076128;28;20036;-88
2020/12/29 03:37:10;;;;;;;16.10;11.02;;;5.00;95.80;;;;;;5042499;28;20027;-89
2020/12/29 03:39:37;;;;;;;17.75;12.00;;;5.00;95.90;;;;;;5083918;28;20099;-89
2020/12/29 03:42:04;;;;;;;14.93;10.77;;;4.90;95.80;;;;;;5070337;28;20024;-89
2020/12/29 03:44:29;;;;;;;16.13;12.13;;;5.00;95.90;;;;;;5083210;28;20839;-89
2020/12/29 03:46:55;;;;;;;14.38;10.82;;;4.90;95.80;;;;;;5074787;28;20114;-89
2020/12/29 03:49:21;;;;;;;18.42;13.15;;;5.00;95.90;;;;;;5056208;28;20114;-90
2020/12/29 03:51:47;;;;;;;16.52;11.48;;;4.90;95.80;;;;;;5055946;28;20025;-89
2020/12/29 03:54:12;;;;;;;14.80;11.32;;;4.90;95.80;;;;;;5058129;28;20028;-90
2020/12/29 03:56:38;;;;;;;16.10;11.75;;;4.90;95.90;;;;;;5032091;28;20024;-89
2020/12/29 03:59:04;;;;;;;16.38;11.35;;;4.90;95.90;;;;;;5073288;28;20032;-89
2020/12/29 04:01:30;;;;;;;16.00;10.77;;;4.90;95.90;;;;;;5076460;28;20028;-89
2020/12/29 04:03:55;;;;;;;12.00;9.10;;;4.90;96.00;;;;;;5039748;28;20036;-88
2020/12/29 04:06:21;;;;;;;13.38;8.98;;;5.00;96.00;;;;;;5070014;28;20025;-89
2020/12/29 04:08:48;;;;;;;13.60;10.55;;;5.00;96.10;;;;;;5068510;28;20057;-89
2020/12/29 04:11:14;;;;;;;11.68;9.15;;;5.00;96.00;;;;;;5071720;28;20353;-89
2020/12/29 04:13:40;;;;;;;11.02;8.82;;;5.10;96.10;;;;;;5067912;28;20028;-88
2020/12/29 04:16:06;;;;;;;14.38;11.68;;;5.10;96.10;;;;;;5112726;28;20053;-89
2020/12/29 04:18:32;;;;;;;13.98;10.88;;;5.10;96.00;;;;;;5084272;28;20035;-88
2020/12/29 04:20:58;;;;;;;19.20;13.32;;;5.10;96.00;;;;;;5083548;28;20008;-86
2020/12/29 04:23:23;;;;;;;15.07;11.43;;;5.10;95.90;;;;;;5080236;28;20043;-88
2020/12/29 04:25:49;;;;;;;18.13;13.60;;;5.00;95.90;;;;;;5055914;28;20047;-87
2020/12/29 04:28:15;;;;;;;16.55;12.15;;;5.10;95.90;;;;;;5079305;28;20016;-87
2020/12/29 04:30:40;;;;;;;15.30;11.73;;;5.00;95.90;;;;;;5073274;28;20076;-89
2020/12/29 04:33:06;;;;;;;13.30;10.95;;;5.00;95.90;;;;;;5048993;28;20507;-88
2020/12/29 04:35:33;;;;;;;15.77;10.88;;;5.00;96.00;;;;;;5085016;28;20054;-89
2020/12/29 04:37:59;;;;;;;15.25;11.43;;;5.10;96.00;;;;;;5053056;28;20046;-89
2020/12/29 04:40:24;;;;;;;14.45;11.20;;;5.00;96.00;;;;;;5054557;28;20173;-88
2020/12/29 04:42:52;;;;;;;12.95;9.60;;;5.00;96.00;;;;;;5055282;28;20535;-89
2020/12/29 04:45:19;;;;;;;15.50;11.00;;;5.00;96.10;;;;;;5059491;28;20023;-89
2020/12/29 04:47:45;;;;;;;16.77;12.23;;;5.10;96.10;;;;;;5075144;28;20032;-88
2020/12/29 04:50:13;;;;;;;15.25;12.25;;;5.00;96.00;;;;;;5071611;28;20021;-89
2020/12/29 04:52:43;;;;;;;15.45;11.25;;;5.10;96.00;;;;;;5064731;28;20055;-89
2020/12/29 04:55:09;;;;;;;17.42;12.80;;;5.00;96.00;;;;;;5091097;28;20111;-89
2020/12/29 04:57:35;;;;;;;18.13;13.52;;;5.00;95.90;;;;;;5043050;28;20029;-89
2020/12/29 05:00:06;;;;;;;15.55;12.02;;;5.00;96.00;;;;;;5048502;28;20043;-89
2020/12/29 05:02:31;;;;;;;15.57;11.85;;;5.00;96.10;;;;;;5089470;28;20020;-89
2020/12/29 05:04:57;;;;;;;18.27;13.52;;;5.10;96.20;;;;;;5035148;28;20502;-88
2020/12/29 05:07:23;;;;;;;15.10;11.30;;;5.00;96.10;;;;;;5056548;28;20031;-88
2020/12/29 05:09:48;;;;;;;14.18;10.68;;;5.00;96.10;;;;;;5058485;28;20411;-88
2020/12/29 05:12:17;;;;;;;16.40;12.05;;;5.00;96.20;;;;;;5069120;28;20533;-88
2020/12/29 05:14:47;;;;;;;15.82;11.70;;;5.00;96.20;;;;;;5072778;28;20062;-89
2020/12/29 05:17:14;;;;;;;20.83;14.85;;;5.10;96.20;;;;;;5054367;28;20029;-89
2020/12/29 05:19:42;;;;;;;22.15;14.20;;;5.00;96.10;;;;;;5054306;28;20036;-88
2020/12/29 05:22:08;;;;;;;18.48;13.50;;;5.00;96.20;;;;;;5054201;28;20028;-89
2020/12/29 05:24:34;;;;;;;19.15;13.65;;;5.00;96.30;;;;;;5046206;28;20073;-89
2020/12/29 05:27:01;;;;;;;20.08;14.52;;;4.90;96.30;;;;;;5092530;28;20028;-87
2020/12/29 05:29:29;;;;;;;21.55;15.13;;;4.90;96.30;;;;;;5054160;28;20021;-88
2020/12/29 05:31:55;;;;;;;16.30;12.70;;;5.00;96.40;;;;;;5068123;28;20107;-88
2020/12/29 05:34:23;;;;;;;17.70;12.90;;;5.00;96.40;;;;;;5060103;28;20583;-87
2020/12/29 05:36:49;;;;;;;21.80;14.43;;;5.10;96.40;;;;;;5081156;28;20036;-89
2020/12/29 05:39:15;;;;;;;22.27;14.55;;;4.90;96.30;;;;;;5054576;28;20032;-89
2020/12/29 05:41:46;;;;;;;19.55;14.18;;;5.00;96.40;;;;;;5054621;28;20035;-87
2020/12/29 05:44:25;;;;;;;22.88;14.70;;;5.00;96.40;;;;;;5054279;28;20485;-88
2020/12/29 05:46:51;;;;;;;22.67;15.68;;;5.00;96.40;;;;;;5054799;28;20468;-89
2020/12/29 05:49:21;;;;;;;21.90;14.93;;;5.00;96.40;;;;;;5067952;28;20033;-86
2020/12/29 05:51:55;;;;;;;17.37;12.57;;;5.00;96.40;;;;;;5062801;28;20099;-89
2020/12/29 05:54:22;;;;;;;24.58;16.45;;;5.10;96.50;;;;;;5073189;28;20286;-89
2020/12/29 05:56:48;;;;;;;28.83;18.88;;;5.10;96.70;;;;;;5061642;28;20024;-89
2020/12/29 05:59:15;;;;;;;24.40;15.60;;;5.10;96.30;;;;;;5079359;28;20052;-88
2020/12/29 06:01:49;;;;;;;22.60;15.70;;;5.10;96.40;;;;;;5067688;28;20377;-89
2020/12/29 06:04:15;;;;;;;23.75;17.23;;;5.10;96.40;;;;;;5050625;28;20119;-88
2020/12/29 06:06:43;;;;;;;25.33;16.60;;;5.10;96.40;;;;;;5074006;28;20482;-89
2020/12/29 06:09:19;;;;;;;24.00;15.77;;;5.00;96.50;;;;;;5057810;28;20383;-88
2020/12/29 06:11:47;;;;;;;25.83;15.98;;;5.10;96.50;;;;;;5055371;28;20073;-88
2020/12/29 06:14:15;;;;;;;28.85;18.00;;;5.10;96.50;;;;;;5054254;28;20041;-89
2020/12/29 06:16:44;;;;;;;34.83;20.70;;;5.10;96.50;;;;;;5054153;28;20039;-89
2020/12/29 06:19:20;;;;;;;28.52;17.27;;;5.10;96.50;;;;;;5084259;28;20020;-88
2020/12/29 06:22:07;;;;;;;31.05;18.77;;;5.10;96.60;;;;;;5075949;28;20025;-89
2020/12/29 06:24:35;;;;;;;28.20;17.38;;;5.10;96.50;;;;;;5070059;28;20154;-88
2020/12/29 06:27:03;;;;;;;26.85;16.90;;;5.10;96.60;;;;;;5080083;28;20105;-89
2020/12/29 06:29:43;;;;;;;29.50;17.27;;;5.10;96.60;;;;;;5087558;28;20031;-88
2020/12/29 06:32:16;;;;;;;34.95;21.02;;;5.10;96.60;;;;;;5049028;28;20032;-89
2020/12/29 06:34:46;;;;;;;43.15;23.10;;;5.10;96.60;;;;;;5065580;28;20031;-88
2020/12/29 06:37:21;;;;;;;30.08;19.15;;;5.10;96.60;;;;;;5058673;28;20024;-89
2020/12/29 06:39:49;;;;;;;34.92;21.08;;;5.10;96.60;;;;;;5072750;28;20048;-89
2020/12/29 06:42:17;;;;;;;40.53;23.83;;;5.10;96.60;;;;;;5085849;28;20374;-88
2020/12/29 06:44:43;;;;;;;47.33;27.80;;;5.10;96.60;;;;;;5073832;28;20025;-89
2020/12/29 06:47:12;;;;;;;49.83;27.25;;;5.10;96.60;;;;;;5049676;28;20036;-87
2020/12/29 06:49:43;;;;;;;36.72;21.55;;;5.10;96.70;;;;;;5060580;28;20170;-88
2020/12/29 06:52:24;;;;;;;49.55;26.85;;;5.10;96.80;;;;;;5082822;28;20119;-88
2020/12/29 06:54:57;;;;;;;43.95;25.23;;;5.10;96.80;;;;;;5078522;28;20105;-88
2020/12/29 06:57:25;;;;;;;36.63;23.35;;;5.10;96.70;;;;;;5065360;28;20028;-88
2020/12/29 06:59:51;;;;;;;36.47;21.77;;;5.10;96.80;;;;;;5076165;28;20134;-89
2020/12/29 07:02:20;;;;;;;42.90;25.05;;;5.10;96.80;;;;;;5087722;28;20471;-88
2020/12/29 07:04:51;;;;;;;35.35;21.10;;;5.10;96.80;;;;;;5074596;28;20024;-88
2020/12/29 07:07:34;;;;;;;35.10;20.45;;;5.20;96.90;;;;;;5063340;28;20023;-88
2020/12/29 07:10:13;;;;;;;37.45;23.15;;;5.20;96.90;;;;;;5062978;28;20480;-87
2020/12/29 07:12:47;;;;;;;45.70;26.17;;;5.20;96.90;;;;;;5067641;28;20045;-88
2020/12/29 07:15:14;;;;;;;40.83;25.65;;;5.20;96.80;;;;;;5070510;28;20024;-88
2020/12/29 07:17:52;;;;;;;42.97;23.70;;;5.20;96.80;;;;;;5081877;28;20036;-87
2020/12/29 07:20:18;;;;;;;34.70;21.85;;;5.20;96.90;;;;;;5061228;28;20032;-88
2020/12/29 07:22:53;;;;;;;33.53;20.33;;;5.20;97.00;;;;;;5068891;28;20506;-88
2020/12/29 07:25:22;;;;;;;33.83;21.20;;;5.30;97.00;;;;;;5056612;28;20040;-88
2020/12/29 07:27:50;;;;;;;33.13;20.33;;;5.30;97.00;;;;;;5057286;28;20374;-88
2020/12/29 07:30:16;;;;;;;31.38;19.17;;;5.30;97.00;;;;;;5036174;28;20051;-86
2020/12/29 07:32:42;;;;;;;37.13;19.70;;;5.30;97.00;;;;;;5059557;28;20032;-87
2020/12/29 07:35:08;;;;;;;32.92;18.27;;;5.30;96.90;;;;;;5067975;28;20399;-87
2020/12/29 07:37:35;;;;;;;28.75;15.77;;;5.30;96.80;;;;;;5060601;28;20024;-88
2020/12/29 07:40:00;;;;;;;29.50;15.18;;;5.30;96.90;;;;;;5062489;28;20049;-87
2020/12/29 07:42:26;;;;;;;32.15;16.33;;;5.30;96.90;;;;;;5061521;28;20541;-87
2020/12/29 07:44:52;;;;;;;27.10;13.63;;;5.30;96.80;;;;;;5074576;28;20026;-88
2020/12/29 07:47:17;;;;;;;29.98;14.57;;;5.20;96.90;;;;;;5071948;28;20038;-87
2020/12/29 07:49:43;;;;;;;31.70;16.42;;;5.20;96.90;;;;;;5075513;28;20357;-88
2020/12/29 07:52:08;;;;;;;32.50;16.15;;;5.20;96.80;;;;;;5053681;28;20025;-87
2020/12/29 07:54:35;;;;;;;29.92;15.35;;;5.20;96.80;;;;;;5065285;28;20036;-84
2020/12/29 07:57:01;;;;;;;30.48;14.63;;;5.20;96.80;;;;;;5073648;28;20020;-89
2020/12/29 07:59:27;;;;;;;29.98;13.57;;;5.20;96.80;;;;;;5068716;28;20499;-87
2020/12/29 08:01:54;;;;;;;37.75;16.67;;;5.30;96.90;;;;;;5096234;27;20004;-86
2020/12/29 08:04:33;;;;;;;33.58;15.82;;;5.20;96.80;;;;;;5115521;28;20024;-88
2020/12/29 08:07:05;;;;;;;31.83;15.48;;;5.20;96.80;;;;;;5121653;27;20047;-88
2020/12/29 08:09:46;;;;;;;32.70;15.63;;;5.20;96.80;;;;;;5131773;27;20040;-85
2020/12/29 08:12:16;;;;;;;35.20;15.63;;;5.20;96.90;;;;;;5098214;28;20036;-86
2020/12/29 08:14:42;;;;;;;35.08;15.50;;;5.20;96.90;;;;;;5095869;28;20032;-88
2020/12/29 08:17:09;;;;;;;35.85;15.95;;;5.30;97.00;;;;;;5089818;28;20024;-88
2020/12/29 08:19:34;;;;;;;31.40;15.73;;;5.30;96.90;;;;;;5073178;28;20020;-91
2020/12/29 08:22:07;;;;;;;38.78;18.02;;;5.20;96.90;;;;;;5052708;28;20019;-87
2020/12/29 08:24:33;;;;;;;33.97;16.15;;;5.20;96.80;;;;;;5094784;28;20030;-89
2020/12/29 08:26:59;;;;;;;37.58;16.33;;;5.20;96.80;;;;;;5078596;28;20016;-90
2020/12/29 08:29:27;;;;;;;37.13;15.93;;;5.20;96.70;;;;;;5045904;28;20024;-91
2020/12/29 08:32:15;;;;;;;38.15;18.92;;;5.20;96.90;;;;;;5064375;28;20032;-93
2020/12/29 08:34:45;;;;;;;34.25;16.73;;;5.20;96.70;;;;;;5066167;28;20076;-93
2020/12/29 08:37:18;;;;;;;34.15;16.15;;;5.10;96.70;;;;;;5060501;28;20095;-92
2020/12/29 08:39:56;;;;;;;35.13;17.85;;;5.10;96.70;;;;;;5072371;28;20024;-94
2020/12/29 08:42:25;;;;;;;34.33;17.00;;;5.10;96.80;;;;;;5080995;28;20036;-93
2020/12/29 08:44:51;;;;;;;30.00;15.55;;;5.10;96.70;;;;;;5069882;28;20028;-93
2020/12/29 08:47:17;;;;;;;33.72;16.17;;;5.10;96.80;;;;;;5045313;28;20047;-95
2020/12/29 08:49:43;;;;;;;33.05;16.30;;;5.10;96.50;;;;;;5040127;28;20036;-92
2020/12/29 08:52:08;;;;;;;32.60;16.75;;;5.00;96.60;;;;;;5056583;28;20230;-95
2020/12/29 08:54:36;;;;;;;27.88;16.13;;;5.00;96.60;;;;;;5048777;28;20102;-92
2020/12/29 08:57:05;;;;;;;32.75;17.15;;;5.00;96.70;;;;;;5066294;28;20059;-93
2020/12/29 08:59:50;;;;;;;32.78;16.40;;;5.00;96.60;;;;;;5085834;28;20932;-92
2020/12/29 09:02:26;;;;;;;36.28;16.88;;;5.00;96.80;;;;;;5065586;28;20119;-88
2020/12/29 09:04:59;;;;;;;33.63;16.40;;;4.90;96.60;;;;;;5066622;28;20120;-88
2020/12/29 09:07:28;;;;;;;36.25;17.35;;;4.90;96.70;;;;;;5070894;28;20460;-93
2020/12/29 09:09:53;;;;;;;32.83;16.65;;;4.90;96.70;;;;;;5048240;28;20032;-92
2020/12/29 09:12:28;;;;;;;36.70;17.45;;;4.90;96.70;;;;;;5086171;28;20376;-91
2020/12/29 09:14:58;;;;;;;36.95;18.90;;;4.90;96.80;;;;;;5065533;28;20045;-96
2020/12/29 09:17:26;;;;;;;33.58;17.08;;;5.00;96.90;;;;;;5077628;28;20031;-93
2020/12/29 09:20:10;;;;;;;31.98;16.70;;;5.00;96.90;;;;;;5069853;28;20058;-92
2020/12/29 09:22:51;;;;;;;39.42;18.95;;;5.00;97.00;;;;;;5071554;28;20030;-90
2020/12/29 09:25:24;;;;;;;34.03;17.52;;;5.00;96.70;;;;;;5078613;28;20027;-91
2020/12/29 09:28:06;;;;;;;40.42;20.63;;;5.00;96.80;;;;;;5063160;28;20020;-89
2020/12/29 09:30:31;;;;;;;35.45;18.73;;;5.00;96.70;;;;;;5062947;28;20048;-90
2020/12/29 09:32:57;;;;;;;37.78;19.65;;;4.90;96.80;;;;;;5040659;28;20035;-91
2020/12/29 09:35:26;;;;;;;34.80;17.50;;;4.90;96.80;;;;;;5068272;28;20053;-92
2020/12/29 09:37:57;;;;;;;33.78;16.80;;;5.00;97.00;;;;;;5075240;28;20062;-91
2020/12/29 09:40:23;;;;;;;38.50;19.83;;;5.00;97.10;;;;;;5079348;28;20040;-89
2020/12/29 09:42:49;;;;;;;38.00;19.15;;;4.90;97.00;;;;;;5091377;28;20118;-90
2020/12/29 09:45:23;;;;;;;41.50;20.00;;;5.00;97.00;;;;;;5047119;28;20379;-91
2020/12/29 09:47:49;;;;;;;47.90;21.90;;;5.00;97.00;;;;;;5086084;28;20058;-92
2020/12/29 09:50:15;;;;;;;40.78;19.95;;;5.00;96.90;;;;;;5084730;28;20057;-90
2020/12/29 09:52:41;;;;;;;36.50;17.92;;;5.00;96.90;;;;;;5056125;28;20043;-90
2020/12/29 09:55:07;;;;;;;36.00;16.55;;;5.00;97.10;;;;;;5090990;28;20047;-88
2020/12/29 09:57:33;;;;;;;34.15;17.05;;;5.00;97.10;;;;;;5070112;28;20024;-90
2020/12/29 09:59:59;;;;;;;41.30;19.33;;;5.00;97.10;;;;;;5049974;28;20439;-89
2020/12/29 10:02:25;;;;;;;39.33;17.58;;;5.00;97.10;;;;;;5087072;28;20078;-91
2020/12/29 10:04:50;;;;;;;33.45;17.35;;;5.10;97.10;;;;;;5056757;28;20025;-91
2020/12/29 10:07:16;;;;;;;33.40;16.52;;;5.00;97.30;;;;;;5055586;28;20028;-91
2020/12/29 10:09:42;;;;;;;41.97;19.45;;;5.10;97.30;;;;;;5044088;28;20049;-87
2020/12/29 10:12:08;;;;;;;35.65;18.60;;;5.10;97.10;;;;;;5042323;28;20048;-89
2020/12/29 10:14:33;;;;;;;40.53;18.83;;;5.10;97.10;;;;;;5069140;28;20024;-89
2020/12/29 10:16:59;;;;;;;35.72;17.17;;;5.10;97.10;;;;;;5066027;28;20049;-90
2020/12/29 10:19:25;;;;;;;35.42;17.45;;;5.10;97.10;;;;;;5070705;28;20090;-90
2020/12/29 10:21:55;;;;;;;33.83;16.35;;;5.10;97.10;;;;;;5069911;28;20032;-90
2020/12/29 10:24:21;;;;;;;30.65;15.60;;;5.10;97.20;;;;;;5088992;28;20032;-89
2020/12/29 10:26:51;;;;;;;32.58;15.93;;;5.10;97.30;;;;;;5092618;28;20028;-92
2020/12/29 10:29:18;;;;;;;34.78;16.80;;;5.20;97.30;;;;;;5056969;28;20025;-90
2020/12/29 10:31:44;;;;;;;37.17;17.52;;;5.20;97.30;;;;;;5083857;28;20507;-91
2020/12/29 10:34:14;;;;;;;37.95;17.98;;;5.20;97.30;;;;;;5059416;28;20036;-90
2020/12/29 10:36:42;;;;;;;39.60;19.60;;;5.20;97.30;;;;;;5060563;28;20088;-90
2020/12/29 10:39:09;;;;;;;35.03;17.58;;;5.20;97.20;;;;;;5096385;28;20024;-91
2020/12/29 10:41:37;;;;;;;35.60;18.33;;;5.20;97.20;;;;;;5073271;28;20490;-89
2020/12/29 10:44:04;;;;;;;36.47;18.92;;;5.20;97.30;;;;;;5072456;28;20035;-91
2020/12/29 10:46:29;;;;;;;43.42;20.85;;;5.20;97.30;;;;;;5079378;28;20103;-90
2020/12/29 10:48:55;;;;;;;38.50;19.25;;;5.20;97.30;;;;;;5068094;28;20107;-92
2020/12/29 10:51:23;;;;;;;36.63;18.80;;;5.20;97.30;;;;;;5092443;28;20024;-83
2020/12/29 10:53:50;;;;;;;43.33;20.42;;;5.20;97.40;;;;;;5058161;28;20062;-90
2020/12/29 10:56:16;;;;;;;38.90;19.33;;;5.20;97.20;;;;;;5072084;28;20043;-90
2020/12/29 10:58:42;;;;;;;39.45;19.50;;;5.20;97.20;;;;;;5075849;28;20008;-91
2020/12/29 11:01:19;;;;;;;35.15;17.98;;;5.20;97.20;;;;;;5076602;28;20056;-91
2020/12/29 11:03:45;;;;;;;33.85;18.90;;;5.20;97.30;;;;;;5088368;28;20480;-91
2020/12/29 11:06:14;;;;;;;38.72;18.75;;;5.20;97.20;;;;;;5076477;28;20103;-91
2020/12/29 11:08:41;;;;;;;35.83;19.00;;;5.20;97.30;;;;;;5075968;28;20066;-90
2020/12/29 11:11:06;;;;;;;35.60;18.02;;;5.20;97.20;;;;;;5068259;28;20036;-92
2020/12/29 11:13:32;;;;;;;32.72;16.95;;;5.20;97.30;;;;;;5068061;28;20036;-91
2020/12/29 11:15:58;;;;;;;39.13;19.40;;;5.20;97.40;;;;;;5094358;28;20361;-90
2020/12/29 11:18:24;;;;;;;40.53;20.48;;;5.20;97.40;;;;;;5076137;28;20024;-89
2020/12/29 11:20:50;;;;;;;33.80;17.00;;;5.30;97.40;;;;;;5070267;28;20028;-93
2020/12/29 11:23:16;;;;;;;32.35;16.30;;;5.30;97.50;;;;;;5049976;28;20036;-91
2020/12/29 11:25:42;;;;;;;35.67;17.83;;;5.40;97.50;;;;;;5056444;28;20376;-89
2020/12/29 11:28:07;;;;;;;34.85;18.42;;;5.30;97.50;;;;;;5084766;28;20023;-90
2020/12/29 11:30:33;;;;;;;37.88;18.05;;;5.40;97.40;;;;;;5114593;28;20499;-90
2020/12/29 11:32:59;;;;;;;37.72;18.90;;;5.40;97.50;;;;;;5041225;28;20123;-95
2020/12/29 11:35:24;;;;;;;36.25;19.25;;;5.40;97.40;;;;;;5076729;28;20032;-91
2020/12/29 11:37:50;;;;;;;39.88;20.55;;;5.40;97.50;;;;;;5046203;28;20028;-93
2020/12/29 11:40:15;;;;;;;37.40;19.23;;;5.40;97.40;;;;;;5077168;28;20063;-93
2020/12/29 11:42:41;;;;;;;47.42;20.77;;;5.40;97.40;;;;;;5041882;28;20166;-90
2020/12/29 11:45:07;;;;;;;49.92;22.52;;;5.50;97.50;;;;;;5060295;28;20028;-91
2020/12/29 11:47:36;;;;;;;56.38;24.23;;;5.50;97.50;;;;;;5037161;28;20458;-91
2020/12/29 11:50:02;;;;;;;53.20;25.58;;;5.50;97.40;;;;;;5089100;28;20035;-91
2020/12/29 11:52:27;;;;;;;57.92;25.73;;;5.50;97.40;;;;;;5103605;28;20094;-90
2020/12/29 11:54:53;;;;;;;44.83;22.58;;;5.50;97.50;;;;;;5111486;28;20031;-89
2020/12/29 11:57:19;;;;;;;59.08;27.77;;;5.60;97.60;;;;;;5078660;28;20029;-89
2020/12/29 11:59:44;;;;;;;52.92;24.17;;;5.50;97.40;;;;;;5073600;28;20024;-89
2020/12/29 12:02:10;;;;;;;61.65;26.13;;;5.60;97.50;;;;;;5123559;28;20015;-91
2020/12/29 12:04:36;;;;;;;59.83;25.60;;;5.60;97.50;;;;;;5101758;28;20024;-92
2020/12/29 12:07:10;;;;;;;56.40;24.90;;;5.60;97.50;;;;;;5066194;28;20463;-91
2020/12/29 12:09:37;;;;;;;77.90;32.45;;;5.60;97.60;;;;;;5072736;28;20030;-91
2020/12/29 12:12:03;;;;;;;71.35;34.65;;;5.60;97.50;;;;;;5094541;28;20094;-90
2020/12/29 12:14:28;;;;;;;62.05;34.03;;;5.60;97.50;;;;;;5064027;28;20056;-91
2020/12/29 12:16:54;;;;;;;61.75;31.95;;;5.50;97.30;;;;;;5048815;28;20024;-91
2020/12/29 12:19:20;;;;;;;62.38;33.67;;;5.60;97.40;;;;;;5109689;28;20103;-90
2020/12/29 12:21:45;;;;;;;66.15;34.08;;;5.50;97.40;;;;;;5063282;28;20499;-90
2020/12/29 12:24:11;;;;;;;63.88;34.72;;;5.60;97.40;;;;;;5108742;28;20059;-90
2020/12/29 12:26:36;;;;;;;70.22;36.97;;;5.60;97.30;;;;;;5078368;28;20487;-90
2020/12/29 12:29:02;;;;;;;54.60;30.45;;;5.50;97.30;;;;;;5068232;28;20052;-91
2020/12/29 12:31:28;;;;;;;73.75;35.55;;;5.60;97.40;;;;;;5054533;28;20135;-90
2020/12/29 12:33:54;;;;;;;58.00;31.98;;;5.60;97.30;;;;;;5064446;28;20138;-94
2020/12/29 12:36:19;;;;;;;72.05;33.40;;;5.60;97.50;;;;;;5047089;28;20046;-91
2020/12/29 12:38:48;;;;;;;58.72;32.70;;;5.60;97.30;;;;;;5062799;28;20052;-90
2020/12/29 12:41:14;;;;;;;62.85;32.95;;;5.60;97.30;;;;;;5089693;28;20020;-90